sensor_id;sensor_type;location;lat;lon;timestamp;P1;durP1;ratioP1;P2;durP2;ratioP2
45762;SDS011;37512;52.408;13.356;2023-08-07T00:02:39;6.38;;;3.78;;
45762;SDS011;37512;52.408;13.356;2023-08-07T00:06:41;6.93;;;3.53;;
45762;SDS011;37512;52.408;13.356;2023-08-07T00:10:43;6.65;;;3.97;;
45762;SDS011;37512;52.408;13.356;2023-08-07T00:14:47;6.00;;;3.83;;
45762;SDS011;37512;52.408;13.356;2023-08-07T00:18:49;4.97;;;3.30;;
45762;SDS011;37512;52.408;13.356;2023-08-07T00:22:50;6.38;;;3.65;;
45762;SDS011;37512;52.408;13.356;2023-08-07T00:26:52;8.30;;;4.00;;
45762;SDS011;37512;52.408;13.356;2023-08-07T00:30:54;8.70;;;4.30;;
45762;SDS011;37512;52.408;13.356;2023-08-07T00:34:56;7.63;;;3.90;;
45762;SDS011;37512;52.408;13.356;2023-08-07T00:38:58;6.78;;;3.97;;
45762;SDS011;37512;52.408;13.356;2023-08-07T00:43:00;4.35;;;3.78;;
45762;SDS011;37512;52.408;13.356;2023-08-07T00:47:02;5.07;;;3.70;;
45762;SDS011;37512;52.408;13.356;2023-08-07T00:51:04;6.15;;;4.60;;
45762;SDS011;37512;52.408;13.356;2023-08-07T00:55:06;5.45;;;3.95;;
45762;SDS011;37512;52.408;13.356;2023-08-07T00:59:08;8.32;;;4.90;;
45762;SDS011;37512;52.408;13.356;2023-08-07T01:03:11;7.32;;;4.75;;
45762;SDS011;37512;52.408;13.356;2023-08-07T01:07:14;13.77;;;4.90;;
45762;SDS011;37512;52.408;13.356;2023-08-07T01:15:29;11.05;;;5.38;;
45762;SDS011;37512;52.408;13.356;2023-08-07T01:19:33;6.90;;;4.53;;
45762;SDS011;37512;52.408;13.356;2023-08-07T01:23:36;7.35;;;4.85;;
45762;SDS011;37512;52.408;13.356;2023-08-07T01:27:59;7.93;;;5.07;;
45762;SDS011;37512;52.408;13.356;2023-08-07T01:36:35;8.10;;;4.55;;
45762;SDS011;37512;52.408;13.356;2023-08-07T01:40:40;9.32;;;4.55;;
45762;SDS011;37512;52.408;13.356;2023-08-07T01:44:43;5.90;;;5.03;;
45762;SDS011;37512;52.408;13.356;2023-08-07T01:48:45;5.13;;;4.07;;
45762;SDS011;37512;52.408;13.356;2023-08-07T01:52:46;9.15;;;5.05;;
45762;SDS011;37512;52.408;13.356;2023-08-07T01:56:48;9.00;;;5.32;;
45762;SDS011;37512;52.408;13.356;2023-08-07T02:00:49;9.02;;;5.57;;
45762;SDS011;37512;52.408;13.356;2023-08-07T02:04:51;7.10;;;4.53;;
45762;SDS011;37512;52.408;13.356;2023-08-07T02:08:52;6.78;;;4.55;;
45762;SDS011;37512;52.408;13.356;2023-08-07T02:12:54;7.95;;;6.25;;
45762;SDS011;37512;52.408;13.356;2023-08-07T02:16:58;8.52;;;6.18;;
45762;SDS011;37512;52.408;13.356;2023-08-07T02:20:59;9.23;;;5.50;;
45762;SDS011;37512;52.408;13.356;2023-08-07T02:25:01;8.30;;;5.78;;
45762;SDS011;37512;52.408;13.356;2023-08-07T02:29:03;7.97;;;5.88;;
45762;SDS011;37512;52.408;13.356;2023-08-07T02:33:05;11.98;;;6.05;;
45762;SDS011;37512;52.408;13.356;2023-08-07T02:37:06;13.10;;;6.30;;
45762;SDS011;37512;52.408;13.356;2023-08-07T02:41:08;8.95;;;5.70;;
45762;SDS011;37512;52.408;13.356;2023-08-07T02:45:09;7.25;;;5.53;;
45762;SDS011;37512;52.408;13.356;2023-08-07T02:49:11;9.13;;;5.18;;
45762;SDS011;37512;52.408;13.356;2023-08-07T02:53:14;7.57;;;5.47;;
45762;SDS011;37512;52.408;13.356;2023-08-07T02:57:18;13.55;;;6.10;;
45762;SDS011;37512;52.408;13.356;2023-08-07T03:01:26;12.88;;;5.85;;
45762;SDS011;37512;52.408;13.356;2023-08-07T03:05:29;14.00;;;5.50;;
45762;SDS011;37512;52.408;13.356;2023-08-07T03:09:30;11.13;;;6.47;;
45762;SDS011;37512;52.408;13.356;2023-08-07T03:13:32;15.13;;;5.93;;
45762;SDS011;37512;52.408;13.356;2023-08-07T03:17:33;9.77;;;5.93;;
45762;SDS011;37512;52.408;13.356;2023-08-07T03:21:35;12.65;;;7.00;;
45762;SDS011;37512;52.408;13.356;2023-08-07T03:25:36;8.63;;;6.50;;
45762;SDS011;37512;52.408;13.356;2023-08-07T03:29:38;10.25;;;5.97;;
45762;SDS011;37512;52.408;13.356;2023-08-07T03:33:40;11.80;;;6.68;;
45762;SDS011;37512;52.408;13.356;2023-08-07T03:37:41;13.98;;;7.63;;
45762;SDS011;37512;52.408;13.356;2023-08-07T03:41:43;8.10;;;6.82;;
45762;SDS011;37512;52.408;13.356;2023-08-07T03:45:45;9.50;;;6.25;;
45762;SDS011;37512;52.408;13.356;2023-08-07T03:49:46;8.90;;;5.55;;
45762;SDS011;37512;52.408;13.356;2023-08-07T03:53:49;8.48;;;5.88;;
45762;SDS011;37512;52.408;13.356;2023-08-07T03:57:51;9.10;;;5.78;;
45762;SDS011;37512;52.408;13.356;2023-08-07T04:01:52;16.67;;;6.85;;
45762;SDS011;37512;52.408;13.356;2023-08-07T04:05:54;9.35;;;6.05;;
45762;SDS011;37512;52.408;13.356;2023-08-07T04:09:56;9.90;;;6.85;;
45762;SDS011;37512;52.408;13.356;2023-08-07T04:13:58;12.77;;;6.78;;
45762;SDS011;37512;52.408;13.356;2023-08-07T04:18:00;9.93;;;6.40;;
45762;SDS011;37512;52.408;13.356;2023-08-07T04:22:02;10.02;;;6.00;;
45762;SDS011;37512;52.408;13.356;2023-08-07T04:26:04;10.13;;;5.85;;
45762;SDS011;37512;52.408;13.356;2023-08-07T04:30:05;10.27;;;5.78;;
45762;SDS011;37512;52.408;13.356;2023-08-07T04:34:08;10.85;;;5.43;;
45762;SDS011;37512;52.408;13.356;2023-08-07T04:38:09;10.70;;;6.18;;
45762;SDS011;37512;52.408;13.356;2023-08-07T04:42:11;11.70;;;6.10;;
45762;SDS011;37512;52.408;13.356;2023-08-07T04:46:13;8.25;;;4.25;;
45762;SDS011;37512;52.408;13.356;2023-08-07T04:50:15;8.30;;;4.85;;
45762;SDS011;37512;52.408;13.356;2023-08-07T04:54:17;7.50;;;4.90;;
45762;SDS011;37512;52.408;13.356;2023-08-07T04:58:18;6.57;;;4.63;;
45762;SDS011;37512;52.408;13.356;2023-08-07T05:02:20;6.18;;;4.40;;
45762;SDS011;37512;52.408;13.356;2023-08-07T05:06:22;6.85;;;4.22;;
45762;SDS011;37512;52.408;13.356;2023-08-07T05:10:23;5.53;;;4.60;;
45762;SDS011;37512;52.408;13.356;2023-08-07T05:14:25;8.43;;;4.40;;
45762;SDS011;37512;52.408;13.356;2023-08-07T05:18:27;7.95;;;4.82;;
45762;SDS011;37512;52.408;13.356;2023-08-07T05:22:29;6.55;;;4.38;;
45762;SDS011;37512;52.408;13.356;2023-08-07T05:26:30;7.72;;;4.18;;
45762;SDS011;37512;52.408;13.356;2023-08-07T05:30:32;5.00;;;3.97;;
45762;SDS011;37512;52.408;13.356;2023-08-07T05:34:34;6.68;;;4.25;;
45762;SDS011;37512;52.408;13.356;2023-08-07T05:38:36;7.05;;;3.78;;
45762;SDS011;37512;52.408;13.356;2023-08-07T05:42:37;2.80;;;2.38;;
45762;SDS011;37512;52.408;13.356;2023-08-07T05:46:39;5.63;;;4.32;;
45762;SDS011;37512;52.408;13.356;2023-08-07T05:50:41;4.68;;;3.67;;
45762;SDS011;37512;52.408;13.356;2023-08-07T05:54:43;6.20;;;3.88;;
45762;SDS011;37512;52.408;13.356;2023-08-07T05:58:45;5.05;;;2.70;;
45762;SDS011;37512;52.408;13.356;2023-08-07T06:02:47;4.72;;;4.00;;
45762;SDS011;37512;52.408;13.356;2023-08-07T06:06:49;7.03;;;3.88;;
45762;SDS011;37512;52.408;13.356;2023-08-07T06:10:50;8.05;;;3.67;;
45762;SDS011;37512;52.408;13.356;2023-08-07T06:14:52;6.35;;;3.80;;
45762;SDS011;37512;52.408;13.356;2023-08-07T06:18:54;6.43;;;2.90;;
45762;SDS011;37512;52.408;13.356;2023-08-07T06:22:56;9.43;;;4.03;;
45762;SDS011;37512;52.408;13.356;2023-08-07T06:26:58;5.63;;;2.72;;
45762;SDS011;37512;52.408;13.356;2023-08-07T06:31:00;2.50;;;2.13;;
45762;SDS011;37512;52.408;13.356;2023-08-07T06:35:03;4.88;;;2.28;;
45762;SDS011;37512;52.408;13.356;2023-08-07T06:39:05;3.13;;;2.50;;
45762;SDS011;37512;52.408;13.356;2023-08-07T06:43:07;4.32;;;2.58;;
45762;SDS011;37512;52.408;13.356;2023-08-07T06:47:09;4.25;;;2.42;;
45762;SDS011;37512;52.408;13.356;2023-08-07T06:51:11;4.82;;;2.53;;
45762;SDS011;37512;52.408;13.356;2023-08-07T06:55:12;2.63;;;1.73;;
45762;SDS011;37512;52.408;13.356;2023-08-07T06:59:14;3.78;;;2.50;;
45762;SDS011;37512;52.408;13.356;2023-08-07T07:03:16;5.15;;;2.55;;
45762;SDS011;37512;52.408;13.356;2023-08-07T07:07:18;2.88;;;2.03;;
45762;SDS011;37512;52.408;13.356;2023-08-07T07:11:19;5.70;;;2.25;;
45762;SDS011;37512;52.408;13.356;2023-08-07T07:15:23;4.95;;;2.53;;
45762;SDS011;37512;52.408;13.356;2023-08-07T07:19:25;4.68;;;2.50;;
45762;SDS011;37512;52.408;13.356;2023-08-07T07:23:27;5.15;;;2.20;;
45762;SDS011;37512;52.408;13.356;2023-08-07T07:27:29;3.50;;;2.15;;
45762;SDS011;37512;52.408;13.356;2023-08-07T07:31:31;5.43;;;2.20;;
45762;SDS011;37512;52.408;13.356;2023-08-07T07:35:37;1.83;;;1.33;;
45762;SDS011;37512;52.408;13.356;2023-08-07T07:39:40;3.55;;;1.85;;
45762;SDS011;37512;52.408;13.356;2023-08-07T07:43:42;3.17;;;1.85;;
45762;SDS011;37512;52.408;13.356;2023-08-07T07:47:44;4.93;;;2.45;;
45762;SDS011;37512;52.408;13.356;2023-08-07T07:51:46;3.83;;;1.27;;
45762;SDS011;37512;52.408;13.356;2023-08-07T07:55:47;5.65;;;1.90;;
45762;SDS011;37512;52.408;13.356;2023-08-07T07:59:49;1.17;;;0.98;;
45762;SDS011;37512;52.408;13.356;2023-08-07T08:03:51;4.35;;;2.30;;
45762;SDS011;37512;52.408;13.356;2023-08-07T08:07:53;4.38;;;2.28;;
45762;SDS011;37512;52.408;13.356;2023-08-07T08:11:55;6.53;;;2.38;;
45762;SDS011;37512;52.408;13.356;2023-08-07T08:15:57;2.67;;;1.20;;
45762;SDS011;37512;52.408;13.356;2023-08-07T08:19:58;4.45;;;2.15;;
45762;SDS011;37512;52.408;13.356;2023-08-07T08:24:00;6.45;;;2.28;;
45762;SDS011;37512;52.408;13.356;2023-08-07T08:28:02;4.10;;;2.42;;
45762;SDS011;37512;52.408;13.356;2023-08-07T08:32:04;2.58;;;2.10;;
45762;SDS011;37512;52.408;13.356;2023-08-07T08:36:07;7.10;;;2.40;;
45762;SDS011;37512;52.408;13.356;2023-08-07T08:40:08;2.50;;;2.00;;
45762;SDS011;37512;52.408;13.356;2023-08-07T08:44:14;4.75;;;2.20;;
45762;SDS011;37512;52.408;13.356;2023-08-07T08:48:18;9.32;;;2.45;;
45762;SDS011;37512;52.408;13.356;2023-08-07T08:52:25;4.60;;;2.63;;
45762;SDS011;37512;52.408;13.356;2023-08-07T08:56:28;4.78;;;2.42;;
45762;SDS011;37512;52.408;13.356;2023-08-07T09:00:31;4.88;;;3.00;;
45762;SDS011;37512;52.408;13.356;2023-08-07T09:04:33;3.85;;;2.60;;
45762;SDS011;37512;52.408;13.356;2023-08-07T09:08:35;5.05;;;2.22;;
45762;SDS011;37512;52.408;13.356;2023-08-07T09:12:40;4.15;;;2.45;;
45762;SDS011;37512;52.408;13.356;2023-08-07T09:16:47;4.75;;;2.20;;
45762;SDS011;37512;52.408;13.356;2023-08-07T09:20:51;4.00;;;3.00;;
45762;SDS011;37512;52.408;13.356;2023-08-07T09:24:53;5.50;;;3.10;;
45762;SDS011;37512;52.408;13.356;2023-08-07T09:28:54;3.40;;;2.35;;
45762;SDS011;37512;52.408;13.356;2023-08-07T09:32:57;9.52;;;2.05;;
45762;SDS011;37512;52.408;13.356;2023-08-07T09:36:59;4.20;;;1.73;;
45762;SDS011;37512;52.408;13.356;2023-08-07T09:41:01;7.07;;;1.67;;
45762;SDS011;37512;52.408;13.356;2023-08-07T09:45:18;4.35;;;1.90;;
45762;SDS011;37512;52.408;13.356;2023-08-07T09:49:33;2.45;;;1.65;;
45762;SDS011;37512;52.408;13.356;2023-08-07T09:53:34;2.88;;;1.10;;
45762;SDS011;37512;52.408;13.356;2023-08-07T09:57:36;4.20;;;1.77;;
45762;SDS011;37512;52.408;13.356;2023-08-07T10:01:38;2.92;;;1.50;;
45762;SDS011;37512;52.408;13.356;2023-08-07T10:05:42;5.20;;;1.33;;
45762;SDS011;37512;52.408;13.356;2023-08-07T10:09:44;3.72;;;1.60;;
45762;SDS011;37512;52.408;13.356;2023-08-07T10:13:50;5.00;;;1.63;;
45762;SDS011;37512;52.408;13.356;2023-08-07T10:17:51;2.40;;;1.45;;
45762;SDS011;37512;52.408;13.356;2023-08-07T10:21:53;2.08;;;1.27;;
45762;SDS011;37512;52.408;13.356;2023-08-07T10:25:55;2.40;;;1.50;;
45762;SDS011;37512;52.408;13.356;2023-08-07T10:29:58;4.38;;;1.40;;
45762;SDS011;37512;52.408;13.356;2023-08-07T10:34:02;2.33;;;1.50;;
45762;SDS011;37512;52.408;13.356;2023-08-07T10:38:05;2.67;;;1.67;;
45762;SDS011;37512;52.408;13.356;2023-08-07T10:42:10;3.72;;;1.63;;
45762;SDS011;37512;52.408;13.356;2023-08-07T10:46:19;2.25;;;1.20;;
45762;SDS011;37512;52.408;13.356;2023-08-07T10:50:29;3.78;;;1.83;;
45762;SDS011;37512;52.408;13.356;2023-08-07T10:54:38;2.70;;;1.38;;
45762;SDS011;37512;52.408;13.356;2023-08-07T10:58:48;2.05;;;1.15;;
45762;SDS011;37512;52.408;13.356;2023-08-07T11:02:54;3.92;;;1.30;;
45762;SDS011;37512;52.408;13.356;2023-08-07T11:06:59;3.60;;;1.50;;
45762;SDS011;37512;52.408;13.356;2023-08-07T11:11:04;2.22;;;0.95;;
45762;SDS011;37512;52.408;13.356;2023-08-07T11:15:11;4.15;;;1.50;;
45762;SDS011;37512;52.408;13.356;2023-08-07T11:19:14;2.00;;;1.30;;
45762;SDS011;37512;52.408;13.356;2023-08-07T11:23:22;3.22;;;1.45;;
45762;SDS011;37512;52.408;13.356;2023-08-07T11:27:27;2.92;;;1.40;;
45762;SDS011;37512;52.408;13.356;2023-08-07T11:31:28;1.92;;;1.10;;
45762;SDS011;37512;52.408;13.356;2023-08-07T11:35:30;3.45;;;1.33;;
45762;SDS011;37512;52.408;13.356;2023-08-07T11:39:32;2.75;;;1.55;;
45762;SDS011;37512;52.408;13.356;2023-08-07T11:43:34;3.15;;;1.40;;
45762;SDS011;37512;52.408;13.356;2023-08-07T11:47:36;4.47;;;1.58;;
45762;SDS011;37512;52.408;13.356;2023-08-07T11:51:38;4.32;;;1.63;;
45762;SDS011;37512;52.408;13.356;2023-08-07T11:55:47;2.97;;;1.70;;
45762;SDS011;37512;52.408;13.356;2023-08-07T12:00:00;3.00;;;1.53;;
45762;SDS011;37512;52.408;13.356;2023-08-07T12:08:07;4.55;;;1.90;;
45762;SDS011;37512;52.408;13.356;2023-08-07T12:12:10;3.30;;;1.50;;
45762;SDS011;37512;52.408;13.356;2023-08-07T12:16:15;3.22;;;1.67;;
45762;SDS011;37512;52.408;13.356;2023-08-07T12:20:18;3.15;;;1.60;;
45762;SDS011;37512;52.408;13.356;2023-08-07T12:24:19;3.33;;;1.65;;
45762;SDS011;37512;52.408;13.356;2023-08-07T12:28:21;8.57;;;1.83;;
45762;SDS011;37512;52.408;13.356;2023-08-07T12:32:23;3.08;;;1.42;;
45762;SDS011;37512;52.408;13.356;2023-08-07T12:36:24;1.52;;;1.10;;
45762;SDS011;37512;52.408;13.356;2023-08-07T12:40:26;2.42;;;1.42;;
45762;SDS011;37512;52.408;13.356;2023-08-07T12:44:31;3.28;;;1.30;;
45762;SDS011;37512;52.408;13.356;2023-08-07T12:48:32;3.67;;;1.17;;
45762;SDS011;37512;52.408;13.356;2023-08-07T12:52:34;1.13;;;0.65;;
45762;SDS011;37512;52.408;13.356;2023-08-07T12:56:36;1.17;;;0.68;;
45762;SDS011;37512;52.408;13.356;2023-08-07T13:00:38;4.47;;;1.30;;
45762;SDS011;37512;52.408;13.356;2023-08-07T13:04:39;6.25;;;1.23;;
45762;SDS011;37512;52.408;13.356;2023-08-07T13:08:41;6.68;;;1.63;;
45762;SDS011;37512;52.408;13.356;2023-08-07T13:12:44;4.10;;;1.73;;
45762;SDS011;37512;52.408;13.356;2023-08-07T13:16:48;5.47;;;2.00;;
45762;SDS011;37512;52.408;13.356;2023-08-07T13:20:50;6.18;;;1.95;;
45762;SDS011;37512;52.408;13.356;2023-08-07T13:24:52;3.47;;;1.90;;
45762;SDS011;37512;52.408;13.356;2023-08-07T13:28:54;3.55;;;1.73;;
45762;SDS011;37512;52.408;13.356;2023-08-07T13:32:55;3.13;;;1.77;;
45762;SDS011;37512;52.408;13.356;2023-08-07T13:36:57;7.50;;;2.03;;
45762;SDS011;37512;52.408;13.356;2023-08-07T13:41:00;8.68;;;4.95;;
45762;SDS011;37512;52.408;13.356;2023-08-07T13:45:02;5.70;;;2.00;;
45762;SDS011;37512;52.408;13.356;2023-08-07T13:49:04;5.65;;;2.03;;
45762;SDS011;37512;52.408;13.356;2023-08-07T13:53:06;9.70;;;2.10;;
45762;SDS011;37512;52.408;13.356;2023-08-07T13:57:19;4.88;;;1.55;;
45762;SDS011;37512;52.408;13.356;2023-08-07T14:01:20;5.15;;;1.75;;
45762;SDS011;37512;52.408;13.356;2023-08-07T14:05:22;7.20;;;1.60;;
45762;SDS011;37512;52.408;13.356;2023-08-07T14:09:24;3.35;;;1.50;;
45762;SDS011;37512;52.408;13.356;2023-08-07T14:13:26;5.25;;;1.80;;
45762;SDS011;37512;52.408;13.356;2023-08-07T14:17:28;5.60;;;1.80;;
45762;SDS011;37512;52.408;13.356;2023-08-07T14:21:30;3.65;;;1.48;;
45762;SDS011;37512;52.408;13.356;2023-08-07T14:25:31;4.10;;;1.65;;
45762;SDS011;37512;52.408;13.356;2023-08-07T14:29:33;3.10;;;1.25;;
45762;SDS011;37512;52.408;13.356;2023-08-07T14:33:43;4.38;;;1.65;;
45762;SDS011;37512;52.408;13.356;2023-08-07T14:37:48;3.80;;;1.38;;
45762;SDS011;37512;52.408;13.356;2023-08-07T14:41:50;8.13;;;2.13;;
45762;SDS011;37512;52.408;13.356;2023-08-07T14:45:53;5.22;;;2.00;;
45762;SDS011;37512;52.408;13.356;2023-08-07T14:49:56;4.68;;;1.33;;
45762;SDS011;37512;52.408;13.356;2023-08-07T14:53:57;5.60;;;1.58;;
45762;SDS011;37512;52.408;13.356;2023-08-07T14:58:00;5.93;;;2.25;;
45762;SDS011;37512;52.408;13.356;2023-08-07T15:02:01;7.82;;;2.42;;
45762;SDS011;37512;52.408;13.356;2023-08-07T15:06:03;6.78;;;1.80;;
45762;SDS011;37512;52.408;13.356;2023-08-07T15:10:07;7.10;;;1.55;;
45762;SDS011;37512;52.408;13.356;2023-08-07T15:14:09;5.85;;;1.88;;
45762;SDS011;37512;52.408;13.356;2023-08-07T15:18:11;6.30;;;1.77;;
45762;SDS011;37512;52.408;13.356;2023-08-07T15:22:13;4.05;;;1.92;;
45762;SDS011;37512;52.408;13.356;2023-08-07T15:26:14;6.93;;;1.73;;
45762;SDS011;37512;52.408;13.356;2023-08-07T15:30:16;4.70;;;2.15;;
45762;SDS011;37512;52.408;13.356;2023-08-07T15:34:17;7.25;;;2.17;;
45762;SDS011;37512;52.408;13.356;2023-08-07T15:38:19;7.53;;;2.22;;
45762;SDS011;37512;52.408;13.356;2023-08-07T15:42:21;4.63;;;2.10;;
45762;SDS011;37512;52.408;13.356;2023-08-07T15:46:22;5.82;;;2.67;;
45762;SDS011;37512;52.408;13.356;2023-08-07T15:50:24;4.50;;;1.60;;
45762;SDS011;37512;52.408;13.356;2023-08-07T15:54:25;4.50;;;1.95;;
45762;SDS011;37512;52.408;13.356;2023-08-07T15:58:27;2.65;;;1.30;;
45762;SDS011;37512;52.408;13.356;2023-08-07T16:02:29;6.55;;;1.63;;
45762;SDS011;37512;52.408;13.356;2023-08-07T16:06:30;3.95;;;1.58;;
45762;SDS011;37512;52.408;13.356;2023-08-07T16:10:32;5.22;;;1.58;;
45762;SDS011;37512;52.408;13.356;2023-08-07T16:14:34;8.43;;;1.58;;
45762;SDS011;37512;52.408;13.356;2023-08-07T16:18:38;5.80;;;1.85;;
45762;SDS011;37512;52.408;13.356;2023-08-07T16:22:42;7.45;;;1.88;;
45762;SDS011;37512;52.408;13.356;2023-08-07T16:26:43;5.03;;;1.83;;
45762;SDS011;37512;52.408;13.356;2023-08-07T16:30:45;3.70;;;1.40;;
45762;SDS011;37512;52.408;13.356;2023-08-07T16:34:47;2.35;;;1.50;;
45762;SDS011;37512;52.408;13.356;2023-08-07T16:38:48;5.93;;;1.48;;
45762;SDS011;37512;52.408;13.356;2023-08-07T16:42:50;3.88;;;1.60;;
45762;SDS011;37512;52.408;13.356;2023-08-07T16:46:55;2.60;;;1.45;;
45762;SDS011;37512;52.408;13.356;2023-08-07T16:50:57;4.47;;;1.77;;
45762;SDS011;37512;52.408;13.356;2023-08-07T16:55:15;5.28;;;1.35;;
45762;SDS011;37512;52.408;13.356;2023-08-07T16:59:17;6.00;;;1.65;;
45762;SDS011;37512;52.408;13.356;2023-08-07T17:03:19;6.55;;;1.35;;
45762;SDS011;37512;52.408;13.356;2023-08-07T17:07:22;3.72;;;1.88;;
45762;SDS011;37512;52.408;13.356;2023-08-07T17:11:23;6.47;;;1.50;;
45762;SDS011;37512;52.408;13.356;2023-08-07T17:15:27;2.88;;;1.70;;
45762;SDS011;37512;52.408;13.356;2023-08-07T17:19:29;2.67;;;1.58;;
45762;SDS011;37512;52.408;13.356;2023-08-07T17:23:30;5.18;;;1.27;;
45762;SDS011;37512;52.408;13.356;2023-08-07T17:27:32;2.45;;;1.42;;
45762;SDS011;37512;52.408;13.356;2023-08-07T17:31:34;5.57;;;1.75;;
45762;SDS011;37512;52.408;13.356;2023-08-07T17:35:36;4.28;;;1.38;;
45762;SDS011;37512;52.408;13.356;2023-08-07T17:39:37;4.95;;;1.33;;
45762;SDS011;37512;52.408;13.356;2023-08-07T17:43:39;5.60;;;1.13;;
45762;SDS011;37512;52.408;13.356;2023-08-07T17:47:40;3.53;;;1.77;;
45762;SDS011;37512;52.408;13.356;2023-08-07T17:51:42;2.75;;;1.80;;
45762;SDS011;37512;52.408;13.356;2023-08-07T17:55:44;3.28;;;1.88;;
45762;SDS011;37512;52.408;13.356;2023-08-07T17:59:45;6.25;;;2.10;;
45762;SDS011;37512;52.408;13.356;2023-08-07T18:03:51;8.55;;;2.20;;
45762;SDS011;37512;52.408;13.356;2023-08-07T18:07:53;2.22;;;1.30;;
45762;SDS011;37512;52.408;13.356;2023-08-07T18:11:55;2.70;;;1.65;;
45762;SDS011;37512;52.408;13.356;2023-08-07T18:15:56;9.70;;;2.20;;
45762;SDS011;37512;52.408;13.356;2023-08-07T18:19:59;4.13;;;2.13;;
45762;SDS011;37512;52.408;13.356;2023-08-07T18:24:01;7.10;;;2.22;;
45762;SDS011;37512;52.408;13.356;2023-08-07T18:28:03;8.48;;;1.90;;
45762;SDS011;37512;52.408;13.356;2023-08-07T18:32:05;5.95;;;2.20;;
45762;SDS011;37512;52.408;13.356;2023-08-07T18:36:07;5.53;;;1.77;;
45762;SDS011;37512;52.408;13.356;2023-08-07T18:40:09;4.30;;;1.70;;
45762;SDS011;37512;52.408;13.356;2023-08-07T18:44:11;3.90;;;1.13;;
45762;SDS011;37512;52.408;13.356;2023-08-07T18:48:12;4.63;;;1.80;;
45762;SDS011;37512;52.408;13.356;2023-08-07T18:52:14;3.28;;;1.80;;
45762;SDS011;37512;52.408;13.356;2023-08-07T18:56:16;4.15;;;1.70;;
45762;SDS011;37512;52.408;13.356;2023-08-07T19:00:17;4.90;;;2.00;;
45762;SDS011;37512;52.408;13.356;2023-08-07T19:04:19;4.82;;;1.58;;
45762;SDS011;37512;52.408;13.356;2023-08-07T19:08:21;3.50;;;1.25;;
45762;SDS011;37512;52.408;13.356;2023-08-07T19:12:23;4.47;;;1.85;;
45762;SDS011;37512;52.408;13.356;2023-08-07T19:16:24;4.57;;;1.27;;
45762;SDS011;37512;52.408;13.356;2023-08-07T19:20:28;5.20;;;1.70;;
45762;SDS011;37512;52.408;13.356;2023-08-07T19:24:30;2.45;;;1.45;;
45762;SDS011;37512;52.408;13.356;2023-08-07T19:28:32;4.43;;;1.30;;
45762;SDS011;37512;52.408;13.356;2023-08-07T19:32:33;4.78;;;1.75;;
45762;SDS011;37512;52.408;13.356;2023-08-07T19:36:36;5.78;;;2.22;;
45762;SDS011;37512;52.408;13.356;2023-08-07T19:40:54;3.63;;;1.50;;
45762;SDS011;37512;52.408;13.356;2023-08-07T19:44:56;2.78;;;1.40;;
45762;SDS011;37512;52.408;13.356;2023-08-07T19:48:58;3.67;;;1.40;;
45762;SDS011;37512;52.408;13.356;2023-08-07T19:52:59;2.55;;;1.42;;
45762;SDS011;37512;52.408;13.356;2023-08-07T19:57:03;1.95;;;1.17;;
45762;SDS011;37512;52.408;13.356;2023-08-07T20:01:05;4.90;;;1.88;;
45762;SDS011;37512;52.408;13.356;2023-08-07T20:05:06;6.75;;;1.48;;
45762;SDS011;37512;52.408;13.356;2023-08-07T20:09:09;2.75;;;1.60;;
45762;SDS011;37512;52.408;13.356;2023-08-07T20:13:10;6.10;;;2.00;;
45762;SDS011;37512;52.408;13.356;2023-08-07T20:17:12;4.63;;;1.55;;
45762;SDS011;37512;52.408;13.356;2023-08-07T20:21:14;3.92;;;1.83;;
45762;SDS011;37512;52.408;13.356;2023-08-07T20:25:17;4.15;;;1.58;;
45762;SDS011;37512;52.408;13.356;2023-08-07T20:29:19;4.13;;;1.60;;
45762;SDS011;37512;52.408;13.356;2023-08-07T20:33:20;8.07;;;1.48;;
45762;SDS011;37512;52.408;13.356;2023-08-07T20:37:22;7.03;;;1.67;;
45762;SDS011;37512;52.408;13.356;2023-08-07T20:41:27;5.68;;;1.40;;
45762;SDS011;37512;52.408;13.356;2023-08-07T20:45:28;4.25;;;1.60;;
45762;SDS011;37512;52.408;13.356;2023-08-07T20:49:30;3.67;;;2.10;;
45762;SDS011;37512;52.408;13.356;2023-08-07T20:53:31;4.50;;;2.92;;
45762;SDS011;37512;52.408;13.356;2023-08-07T20:57:33;5.47;;;1.90;;
45762;SDS011;37512;52.408;13.356;2023-08-07T21:01:36;2.97;;;1.63;;
45762;SDS011;37512;52.408;13.356;2023-08-07T21:05:37;4.53;;;1.67;;
45762;SDS011;37512;52.408;13.356;2023-08-07T21:09:39;6.00;;;2.00;;
45762;SDS011;37512;52.408;13.356;2023-08-07T21:13:41;6.05;;;2.83;;
45762;SDS011;37512;52.408;13.356;2023-08-07T21:17:42;4.70;;;1.65;;
45762;SDS011;37512;52.408;13.356;2023-08-07T21:21:44;4.40;;;2.00;;
45762;SDS011;37512;52.408;13.356;2023-08-07T21:25:45;4.13;;;2.00;;
45762;SDS011;37512;52.408;13.356;2023-08-07T21:29:47;6.82;;;1.90;;
45762;SDS011;37512;52.408;13.356;2023-08-07T21:33:49;5.55;;;1.73;;
45762;SDS011;37512;52.408;13.356;2023-08-07T21:37:50;3.15;;;1.25;;
45762;SDS011;37512;52.408;13.356;2023-08-07T21:41:54;5.28;;;2.10;;
45762;SDS011;37512;52.408;13.356;2023-08-07T21:45:56;5.72;;;2.08;;
45762;SDS011;37512;52.408;13.356;2023-08-07T21:49:58;4.18;;;1.58;;
45762;SDS011;37512;52.408;13.356;2023-08-07T21:53:59;7.00;;;2.40;;
45762;SDS011;37512;52.408;13.356;2023-08-07T21:58:01;4.97;;;1.95;;
45762;SDS011;37512;52.408;13.356;2023-08-07T22:02:03;6.25;;;1.77;;
45762;SDS011;37512;52.408;13.356;2023-08-07T22:06:05;5.53;;;1.73;;
45762;SDS011;37512;52.408;13.356;2023-08-07T22:10:07;3.67;;;1.83;;
45762;SDS011;37512;52.408;13.356;2023-08-07T22:14:11;3.65;;;1.42;;
45762;SDS011;37512;52.408;13.356;2023-08-07T22:18:12;3.72;;;1.90;;
45762;SDS011;37512;52.408;13.356;2023-08-07T22:22:14;4.10;;;2.17;;
45762;SDS011;37512;52.408;13.356;2023-08-07T22:26:16;10.77;;;2.20;;
45762;SDS011;37512;52.408;13.356;2023-08-07T22:30:17;5.35;;;1.77;;
45762;SDS011;37512;52.408;13.356;2023-08-07T22:34:21;4.63;;;1.98;;
45762;SDS011;37512;52.408;13.356;2023-08-07T22:38:23;3.95;;;1.67;;
45762;SDS011;37512;52.408;13.356;2023-08-07T22:42:24;4.93;;;1.83;;
45762;SDS011;37512;52.408;13.356;2023-08-07T22:46:26;3.20;;;1.80;;
45762;SDS011;37512;52.408;13.356;2023-08-07T22:50:28;4.20;;;1.75;;
45762;SDS011;37512;52.408;13.356;2023-08-07T22:54:29;2.85;;;1.20;;
45762;SDS011;37512;52.408;13.356;2023-08-07T22:58:31;5.15;;;2.30;;
45762;SDS011;37512;52.408;13.356;2023-08-07T23:02:40;3.33;;;1.73;;
45762;SDS011;37512;52.408;13.356;2023-08-07T23:06:42;7.93;;;1.95;;
45762;SDS011;37512;52.408;13.356;2023-08-07T23:10:44;5.75;;;1.73;;
45762;SDS011;37512;52.408;13.356;2023-08-07T23:14:45;2.08;;;1.25;;
45762;SDS011;37512;52.408;13.356;2023-08-07T23:18:47;3.42;;;1.42;;
45762;SDS011;37512;52.408;13.356;2023-08-07T23:22:48;3.58;;;1.25;;
45762;SDS011;37512;52.408;13.356;2023-08-07T23:26:54;5.35;;;1.88;;
45762;SDS011;37512;52.408;13.356;2023-08-07T23:30:55;4.88;;;1.60;;
45762;SDS011;37512;52.408;13.356;2023-08-07T23:34:57;5.90;;;1.60;;
45762;SDS011;37512;52.408;13.356;2023-08-07T23:38:59;2.83;;;1.77;;
45762;SDS011;37512;52.408;13.356;2023-08-07T23:43:00;2.97;;;1.08;;
45762;SDS011;37512;52.408;13.356;2023-08-07T23:47:06;3.33;;;1.67;;
45762;SDS011;37512;52.408;13.356;2023-08-07T23:51:09;6.93;;;2.15;;
45762;SDS011;37512;52.408;13.356;2023-08-07T23:55:11;2.85;;;1.80;;
45762;SDS011;37512;52.408;13.356;2023-08-07T23:59:12;6.05;;;1.50;;
